sensor_id;sensor_type;location;lat;lon;timestamp;pressure;altitude;pressure_sealevel;temperature;humidity
11682;BME280;5897;42.640;23.310;2023-08-12T00:00:47;94489.72;;;18.54;80.89
11682;BME280;5897;42.640;23.310;2023-08-12T00:03:14;94481.50;;;18.54;80.71
11682;BME280;5897;42.640;23.310;2023-08-12T00:05:41;94480.75;;;18.53;80.92
11682;BME280;5897;42.640;23.310;2023-08-12T00:08:08;94477.00;;;18.42;81.57
11682;BME280;5897;42.640;23.310;2023-08-12T00:10:35;94490.50;;;18.54;80.53
11682;BME280;5897;42.640;23.310;2023-08-12T00:13:03;94484.25;;;18.54;80.34
11682;BME280;5897;42.640;23.310;2023-08-12T00:15:30;94482.16;;;18.49;80.86
11682;BME280;5897;42.640;23.310;2023-08-12T00:17:57;94485.81;;;18.46;80.91
11682;BME280;5897;42.640;23.310;2023-08-12T00:20:24;94474.72;;;18.40;81.41
11682;BME280;5897;42.640;23.310;2023-08-12T00:22:50;94473.84;;;18.34;81.43
11682;BME280;5897;42.640;23.310;2023-08-12T00:25:17;94477.75;;;18.42;80.75
11682;BME280;5897;42.640;23.310;2023-08-12T00:27:44;94476.56;;;18.43;80.26
11682;BME280;5897;42.640;23.310;2023-08-12T00:30:12;94473.34;;;18.45;80.63
11682;BME280;5897;42.640;23.310;2023-08-12T00:32:39;94472.16;;;18.37;80.80
11682;BME280;5897;42.640;23.310;2023-08-12T00:35:06;94475.53;;;18.32;80.63
11682;BME280;5897;42.640;23.310;2023-08-12T00:37:33;94468.69;;;18.27;81.09
11682;BME280;5897;42.640;23.310;2023-08-12T00:40:00;94461.22;;;18.28;80.85
11682;BME280;5897;42.640;23.310;2023-08-12T00:42:27;94469.16;;;18.35;80.28
11682;BME280;5897;42.640;23.310;2023-08-12T00:44:54;94465.66;;;18.34;80.51
11682;BME280;5897;42.640;23.310;2023-08-12T00:47:22;94472.16;;;18.28;80.97
11682;BME280;5897;42.640;23.310;2023-08-12T00:49:49;94463.56;;;18.11;81.14
11682;BME280;5897;42.640;23.310;2023-08-12T00:52:17;94468.16;;;18.14;81.37
11682;BME280;5897;42.640;23.310;2023-08-12T00:54:44;94470.28;;;18.10;81.78
11682;BME280;5897;42.640;23.310;2023-08-12T00:57:11;94459.28;;;18.19;81.63
11682;BME280;5897;42.640;23.310;2023-08-12T00:59:39;94460.78;;;18.29;80.60
11682;BME280;5897;42.640;23.310;2023-08-12T01:02:08;94461.28;;;18.19;81.34
11682;BME280;5897;42.640;23.310;2023-08-12T01:04:36;94460.06;;;18.11;81.70
11682;BME280;5897;42.640;23.310;2023-08-12T01:07:03;94459.47;;;18.16;81.64
11682;BME280;5897;42.640;23.310;2023-08-12T01:09:30;94457.94;;;18.15;81.26
11682;BME280;5897;42.640;23.310;2023-08-12T01:12:02;94461.88;;;18.23;80.90
11682;BME280;5897;42.640;23.310;2023-08-12T01:14:37;94455.03;;;18.18;80.23
11682;BME280;5897;42.640;23.310;2023-08-12T01:17:08;94453.50;;;18.26;80.33
11682;BME280;5897;42.640;23.310;2023-08-12T01:19:39;94450.97;;;18.14;80.75
11682;BME280;5897;42.640;23.310;2023-08-12T01:22:11;94451.88;;;18.11;80.37
11682;BME280;5897;42.640;23.310;2023-08-12T01:24:41;94454.59;;;18.11;80.01
11682;BME280;5897;42.640;23.310;2023-08-12T01:27:09;94454.66;;;18.02;80.58
11682;BME280;5897;42.640;23.310;2023-08-12T01:29:38;94455.25;;;18.06;80.36
11682;BME280;5897;42.640;23.310;2023-08-12T01:32:10;94449.94;;;18.02;80.09
11682;BME280;5897;42.640;23.310;2023-08-12T01:34:42;94449.34;;;17.98;80.21
11682;BME280;5897;42.640;23.310;2023-08-12T01:37:13;94450.25;;;17.95;79.80
11682;BME280;5897;42.640;23.310;2023-08-12T01:39:45;94447.97;;;17.94;79.67
11682;BME280;5897;42.640;23.310;2023-08-12T01:42:13;94445.56;;;17.96;79.49
11682;BME280;5897;42.640;23.310;2023-08-12T01:44:42;94447.25;;;17.93;79.24
11682;BME280;5897;42.640;23.310;2023-08-12T01:47:09;94442.41;;;17.88;78.58
11682;BME280;5897;42.640;23.310;2023-08-12T01:49:35;94441.94;;;17.90;79.13
11682;BME280;5897;42.640;23.310;2023-08-12T01:52:02;94448.91;;;17.91;78.68
11682;BME280;5897;42.640;23.310;2023-08-12T01:54:29;94446.78;;;17.95;77.84
11682;BME280;5897;42.640;23.310;2023-08-12T01:57:01;94453.63;;;17.90;77.84
11682;BME280;5897;42.640;23.310;2023-08-12T01:59:28;94448.63;;;17.89;78.19
11682;BME280;5897;42.640;23.310;2023-08-12T02:01:54;94444.84;;;17.86;78.26
11682;BME280;5897;42.640;23.310;2023-08-12T02:04:21;94445.13;;;17.88;77.45
11682;BME280;5897;42.640;23.310;2023-08-12T02:06:48;94446.50;;;17.84;77.97
11682;BME280;5897;42.640;23.310;2023-08-12T02:09:16;94455.00;;;17.86;77.65
11682;BME280;5897;42.640;23.310;2023-08-12T02:11:42;94453.94;;;17.83;77.11
11682;BME280;5897;42.640;23.310;2023-08-12T02:14:11;94454.88;;;17.80;77.55
11682;BME280;5897;42.640;23.310;2023-08-12T02:16:37;94448.47;;;17.83;77.33
11682;BME280;5897;42.640;23.310;2023-08-12T02:19:04;94449.09;;;17.87;77.24
11682;BME280;5897;42.640;23.310;2023-08-12T02:21:31;94443.44;;;17.91;76.45
11682;BME280;5897;42.640;23.310;2023-08-12T02:23:58;94446.34;;;17.87;75.99
11682;BME280;5897;42.640;23.310;2023-08-12T02:26:24;94447.72;;;17.83;76.80
11682;BME280;5897;42.640;23.310;2023-08-12T02:28:51;94453.06;;;17.77;76.69
11682;BME280;5897;42.640;23.310;2023-08-12T02:31:19;94452.00;;;17.75;76.92
11682;BME280;5897;42.640;23.310;2023-08-12T02:33:46;94447.88;;;17.79;75.89
11682;BME280;5897;42.640;23.310;2023-08-12T02:36:14;94452.16;;;17.80;75.73
11682;BME280;5897;42.640;23.310;2023-08-12T02:38:41;94455.94;;;17.65;76.48
11682;BME280;5897;42.640;23.310;2023-08-12T02:41:08;94457.50;;;17.66;75.79
11682;BME280;5897;42.640;23.310;2023-08-12T02:43:35;94458.06;;;17.70;76.27
11682;BME280;5897;42.640;23.310;2023-08-12T02:46:01;94451.69;;;17.73;76.07
11682;BME280;5897;42.640;23.310;2023-08-12T02:48:30;94462.91;;;17.75;76.14
11682;BME280;5897;42.640;23.310;2023-08-12T02:50:56;94452.00;;;17.75;75.97
11682;BME280;5897;42.640;23.310;2023-08-12T02:53:23;94462.31;;;17.71;76.35
11682;BME280;5897;42.640;23.310;2023-08-12T02:55:50;94463.84;;;17.72;76.40
11682;BME280;5897;42.640;23.310;2023-08-12T02:58:17;94461.53;;;17.79;75.74
11682;BME280;5897;42.640;23.310;2023-08-12T03:00:43;94461.56;;;17.70;76.48
11682;BME280;5897;42.640;23.310;2023-08-12T03:03:10;94462.78;;;17.69;76.15
11682;BME280;5897;42.640;23.310;2023-08-12T03:05:39;94463.09;;;17.71;76.10
11682;BME280;5897;42.640;23.310;2023-08-12T03:08:06;94466.13;;;17.55;76.80
11682;BME280;5897;42.640;23.310;2023-08-12T03:10:34;94464.91;;;17.56;77.14
11682;BME280;5897;42.640;23.310;2023-08-12T03:13:01;94473.72;;;17.60;77.43
11682;BME280;5897;42.640;23.310;2023-08-12T03:15:27;94464.75;;;17.69;77.82
11682;BME280;5897;42.640;23.310;2023-08-12T03:17:55;94473.53;;;17.82;78.39
11682;BME280;5897;42.640;23.310;2023-08-12T03:20:22;94474.44;;;17.88;78.19
11682;BME280;5897;42.640;23.310;2023-08-12T03:22:50;94472.59;;;17.94;77.68
11682;BME280;5897;42.640;23.310;2023-08-12T03:25:17;94474.13;;;17.86;78.76
11682;BME280;5897;42.640;23.310;2023-08-12T03:27:44;94470.00;;;17.90;79.26
11682;BME280;5897;42.640;23.310;2023-08-12T03:30:12;94472.94;;;17.78;80.41
11682;BME280;5897;42.640;23.310;2023-08-12T03:32:38;94471.44;;;17.59;80.39
11682;BME280;5897;42.640;23.310;2023-08-12T03:35:05;94476.00;;;17.62;80.88
11682;BME280;5897;42.640;23.310;2023-08-12T03:37:32;94474.50;;;17.43;81.78
11682;BME280;5897;42.640;23.310;2023-08-12T03:40:01;94475.25;;;17.25;83.09
11682;BME280;5897;42.640;23.310;2023-08-12T03:42:28;94476.91;;;17.05;84.43
11682;BME280;5897;42.640;23.310;2023-08-12T03:44:55;94479.94;;;17.07;85.00
11682;BME280;5897;42.640;23.310;2023-08-12T03:47:22;94479.63;;;16.96;85.05
11682;BME280;5897;42.640;23.310;2023-08-12T03:49:49;94478.41;;;16.97;85.85
11682;BME280;5897;42.640;23.310;2023-08-12T03:52:16;94491.44;;;16.93;86.42
11682;BME280;5897;42.640;23.310;2023-08-12T03:54:43;94489.63;;;16.99;86.08
11682;BME280;5897;42.640;23.310;2023-08-12T03:57:11;94492.97;;;17.03;85.53
11682;BME280;5897;42.640;23.310;2023-08-12T03:59:38;94478.28;;;17.18;85.05
11682;BME280;5897;42.640;23.310;2023-08-12T04:02:05;94489.03;;;17.31;84.51
11682;BME280;5897;42.640;23.310;2023-08-12T04:04:32;94481.50;;;17.44;83.78
11682;BME280;5897;42.640;23.310;2023-08-12T04:06:59;94479.34;;;17.57;82.81
11682;BME280;5897;42.640;23.310;2023-08-12T04:09:26;94479.47;;;17.71;81.86
11682;BME280;5897;42.640;23.310;2023-08-12T04:11:53;94480.06;;;17.84;80.23
11682;BME280;5897;42.640;23.310;2023-08-12T04:14:21;94477.91;;;17.97;78.95
11682;BME280;5897;42.640;23.310;2023-08-12T04:16:47;94478.94;;;18.09;78.66
11682;BME280;5897;42.640;23.310;2023-08-12T04:19:14;94474.50;;;18.20;78.33
11682;BME280;5897;42.640;23.310;2023-08-12T04:21:41;94485.09;;;18.27;77.92
11682;BME280;5897;42.640;23.310;2023-08-12T04:24:11;94483.13;;;18.37;77.72
11682;BME280;5897;42.640;23.310;2023-08-12T04:26:38;94484.78;;;18.43;77.69
11682;BME280;5897;42.640;23.310;2023-08-12T04:29:05;94487.91;;;18.51;77.67
11682;BME280;5897;42.640;23.310;2023-08-12T04:31:33;94491.84;;;18.59;76.36
11682;BME280;5897;42.640;23.310;2023-08-12T04:34:00;94481.47;;;18.63;76.54
11682;BME280;5897;42.640;23.310;2023-08-12T04:36:27;94486.63;;;18.70;75.91
11682;BME280;5897;42.640;23.310;2023-08-12T04:38:53;94491.13;;;18.73;76.30
11682;BME280;5897;42.640;23.310;2023-08-12T04:41:20;94490.81;;;18.80;76.10
11682;BME280;5897;42.640;23.310;2023-08-12T04:43:49;94480.00;;;18.76;75.64
11682;BME280;5897;42.640;23.310;2023-08-12T04:46:16;94490.13;;;18.94;75.10
11682;BME280;5897;42.640;23.310;2023-08-12T04:48:44;94497.34;;;19.06;74.83
11682;BME280;5897;42.640;23.310;2023-08-12T04:51:12;94498.53;;;19.14;74.29
11682;BME280;5897;42.640;23.310;2023-08-12T04:53:39;94490.25;;;19.23;73.97
11682;BME280;5897;42.640;23.310;2023-08-12T04:56:06;94492.94;;;19.32;74.44
11682;BME280;5897;42.640;23.310;2023-08-12T04:58:34;94492.56;;;19.39;73.79
11682;BME280;5897;42.640;23.310;2023-08-12T05:01:00;94491.56;;;19.51;73.28
11682;BME280;5897;42.640;23.310;2023-08-12T05:03:28;94492.50;;;19.48;73.05
11682;BME280;5897;42.640;23.310;2023-08-12T05:05:55;94495.16;;;19.57;72.75
11682;BME280;5897;42.640;23.310;2023-08-12T05:08:22;94490.44;;;19.57;72.51
11682;BME280;5897;42.640;23.310;2023-08-12T05:10:49;94491.50;;;19.60;73.26
11682;BME280;5897;42.640;23.310;2023-08-12T05:13:16;94501.97;;;19.61;72.72
11682;BME280;5897;42.640;23.310;2023-08-12T05:15:45;94489.56;;;19.51;72.89
11682;BME280;5897;42.640;23.310;2023-08-12T05:18:12;94500.91;;;19.59;72.55
11682;BME280;5897;42.640;23.310;2023-08-12T05:20:39;94505.66;;;19.58;72.49
11682;BME280;5897;42.640;23.310;2023-08-12T05:23:07;94501.88;;;19.56;73.24
11682;BME280;5897;42.640;23.310;2023-08-12T05:25:34;94500.84;;;19.68;72.93
11682;BME280;5897;42.640;23.310;2023-08-12T05:28:01;94501.50;;;19.77;70.18
11682;BME280;5897;42.640;23.310;2023-08-12T05:30:28;94502.47;;;19.89;69.69
11682;BME280;5897;42.640;23.310;2023-08-12T05:32:55;94509.38;;;19.99;69.91
11682;BME280;5897;42.640;23.310;2023-08-12T05:35:22;94516.25;;;19.65;71.41
11682;BME280;5897;42.640;23.310;2023-08-12T05:37:49;94520.34;;;19.84;70.98
11682;BME280;5897;42.640;23.310;2023-08-12T05:40:17;94509.28;;;19.93;70.35
11682;BME280;5897;42.640;23.310;2023-08-12T05:42:44;94515.44;;;20.03;69.91
11682;BME280;5897;42.640;23.310;2023-08-12T05:45:10;94516.66;;;20.02;69.61
11682;BME280;5897;42.640;23.310;2023-08-12T05:47:37;94519.84;;;20.09;70.11
11682;BME280;5897;42.640;23.310;2023-08-12T05:50:05;94519.06;;;20.09;69.74
11682;BME280;5897;42.640;23.310;2023-08-12T05:52:32;94517.66;;;20.13;69.42
11682;BME280;5897;42.640;23.310;2023-08-12T05:54:59;94511.22;;;20.16;69.14
11682;BME280;5897;42.640;23.310;2023-08-12T05:57:28;94519.56;;;20.22;68.98
11682;BME280;5897;42.640;23.310;2023-08-12T05:59:55;94511.22;;;20.31;68.80
11682;BME280;5897;42.640;23.310;2023-08-12T06:02:21;94503.16;;;20.42;68.44
11682;BME280;5897;42.640;23.310;2023-08-12T06:04:49;94502.38;;;20.56;67.70
11682;BME280;5897;42.640;23.310;2023-08-12T06:07:15;94501.16;;;20.57;67.70
11682;BME280;5897;42.640;23.310;2023-08-12T06:09:43;94492.31;;;20.67;65.17
11682;BME280;5897;42.640;23.310;2023-08-12T06:12:10;94495.03;;;20.82;65.54
11682;BME280;5897;42.640;23.310;2023-08-12T06:14:38;94492.69;;;20.75;65.01
11682;BME280;5897;42.640;23.310;2023-08-12T06:17:05;94494.75;;;20.80;64.51
11682;BME280;5897;42.640;23.310;2023-08-12T06:19:33;94487.94;;;20.75;64.32
11682;BME280;5897;42.640;23.310;2023-08-12T06:22:00;94491.84;;;20.69;66.03
11682;BME280;5897;42.640;23.310;2023-08-12T06:24:27;94495.47;;;20.95;66.05
11682;BME280;5897;42.640;23.310;2023-08-12T06:26:54;94486.84;;;21.02;65.66
11682;BME280;5897;42.640;23.310;2023-08-12T06:29:21;94487.88;;;21.04;66.15
11682;BME280;5897;42.640;23.310;2023-08-12T06:31:49;94486.44;;;21.09;65.35
11682;BME280;5897;42.640;23.310;2023-08-12T06:34:16;94492.50;;;21.13;61.95
11682;BME280;5897;42.640;23.310;2023-08-12T06:36:43;94480.41;;;21.25;63.17
11682;BME280;5897;42.640;23.310;2023-08-12T06:39:10;94480.41;;;21.25;62.94
11682;BME280;5897;42.640;23.310;2023-08-12T06:41:36;94476.25;;;21.35;63.00
11682;BME280;5897;42.640;23.310;2023-08-12T06:44:04;94484.63;;;21.46;61.23
11682;BME280;5897;42.640;23.310;2023-08-12T06:46:31;94457.00;;;21.35;62.73
11682;BME280;5897;42.640;23.310;2023-08-12T06:48:59;94472.53;;;21.58;62.66
11682;BME280;5897;42.640;23.310;2023-08-12T06:51:26;94471.03;;;21.57;63.22
11682;BME280;5897;42.640;23.310;2023-08-12T06:53:52;94467.25;;;21.74;61.43
11682;BME280;5897;42.640;23.310;2023-08-12T06:56:19;94474.38;;;21.86;61.58
11682;BME280;5897;42.640;23.310;2023-08-12T06:58:46;94473.66;;;21.91;60.94
11682;BME280;5897;42.640;23.310;2023-08-12T07:01:13;94471.50;;;22.01;61.46
11682;BME280;5897;42.640;23.310;2023-08-12T07:03:39;94468.50;;;21.99;60.48
11682;BME280;5897;42.640;23.310;2023-08-12T07:06:08;94466.16;;;21.92;61.21
11682;BME280;5897;42.640;23.310;2023-08-12T07:08:34;94475.66;;;21.91;63.42
11682;BME280;5897;42.640;23.310;2023-08-12T07:11:01;94447.69;;;21.72;61.55
11682;BME280;5897;42.640;23.310;2023-08-12T07:13:28;94470.69;;;22.20;58.37
11682;BME280;5897;42.640;23.310;2023-08-12T07:15:55;94472.75;;;22.31;57.10
11682;BME280;5897;42.640;23.310;2023-08-12T07:18:22;94473.97;;;22.24;56.19
11682;BME280;5897;42.640;23.310;2023-08-12T07:20:49;94469.56;;;22.38;59.27
11682;BME280;5897;42.640;23.310;2023-08-12T07:23:17;94466.81;;;22.38;60.65
11682;BME280;5897;42.640;23.310;2023-08-12T07:25:45;94467.00;;;22.60;56.89
11682;BME280;5897;42.640;23.310;2023-08-12T07:28:12;94475.84;;;22.69;54.88
11682;BME280;5897;42.640;23.310;2023-08-12T07:30:39;94466.91;;;22.85;55.59
11682;BME280;5897;42.640;23.310;2023-08-12T07:33:06;94474.44;;;22.85;57.65
11682;BME280;5897;42.640;23.310;2023-08-12T07:35:33;94463.97;;;22.94;56.04
11682;BME280;5897;42.640;23.310;2023-08-12T07:38:00;94470.28;;;23.06;54.76
11682;BME280;5897;42.640;23.310;2023-08-12T07:40:28;94467.03;;;23.07;57.19
11682;BME280;5897;42.640;23.310;2023-08-12T07:42:55;94470.44;;;23.28;54.79
11682;BME280;5897;42.640;23.310;2023-08-12T07:45:22;94461.69;;;23.35;55.04
11682;BME280;5897;42.640;23.310;2023-08-12T07:47:49;94466.28;;;23.60;52.84
11682;BME280;5897;42.640;23.310;2023-08-12T07:50:16;94459.81;;;23.79;53.19
11682;BME280;5897;42.640;23.310;2023-08-12T07:52:43;94460.66;;;23.96;53.52
11682;BME280;5897;42.640;23.310;2023-08-12T07:55:10;94460.16;;;24.09;45.90
11682;BME280;5897;42.640;23.310;2023-08-12T07:57:39;94454.84;;;23.89;48.46
11682;BME280;5897;42.640;23.310;2023-08-12T08:00:07;94453.81;;;23.86;50.80
11682;BME280;5897;42.640;23.310;2023-08-12T08:02:35;94454.88;;;24.00;49.81
11682;BME280;5897;42.640;23.310;2023-08-12T08:05:02;94444.34;;;24.09;54.07
11682;BME280;5897;42.640;23.310;2023-08-12T08:07:29;94449.88;;;24.31;53.35
11682;BME280;5897;42.640;23.310;2023-08-12T08:09:56;94451.88;;;24.31;51.54
11682;BME280;5897;42.640;23.310;2023-08-12T08:12:22;94451.16;;;24.58;49.66
11682;BME280;5897;42.640;23.310;2023-08-12T08:14:51;94448.13;;;24.72;50.11
11682;BME280;5897;42.640;23.310;2023-08-12T08:17:17;94443.78;;;24.99;48.17
11682;BME280;5897;42.640;23.310;2023-08-12T08:19:44;94444.81;;;24.90;47.45
11682;BME280;5897;42.640;23.310;2023-08-12T08:22:11;94441.03;;;24.99;43.51
11682;BME280;5897;42.640;23.310;2023-08-12T08:24:38;94443.75;;;25.10;42.86
11682;BME280;5897;42.640;23.310;2023-08-12T08:27:04;94439.81;;;24.83;44.84
11682;BME280;5897;42.640;23.310;2023-08-12T08:29:32;94449.06;;;24.97;46.69
11682;BME280;5897;42.640;23.310;2023-08-12T08:32:00;94446.00;;;25.17;45.35
11682;BME280;5897;42.640;23.310;2023-08-12T08:34:27;94438.66;;;25.36;46.56
11682;BME280;5897;42.640;23.310;2023-08-12T08:36:54;94436.47;;;25.75;45.84
11682;BME280;5897;42.640;23.310;2023-08-12T08:39:21;94434.66;;;25.83;42.55
11682;BME280;5897;42.640;23.310;2023-08-12T08:41:48;94425.06;;;25.89;40.55
11682;BME280;5897;42.640;23.310;2023-08-12T08:44:15;94426.00;;;26.03;42.81
11682;BME280;5897;42.640;23.310;2023-08-12T08:46:45;94425.38;;;26.21;43.85
11682;BME280;5897;42.640;23.310;2023-08-12T08:49:14;94422.16;;;26.41;43.42
11682;BME280;5897;42.640;23.310;2023-08-12T08:51:42;94421.38;;;26.46;41.96
11682;BME280;5897;42.640;23.310;2023-08-12T08:54:09;94420.03;;;26.58;42.66
11682;BME280;5897;42.640;23.310;2023-08-12T08:56:37;94420.50;;;26.62;40.76
11682;BME280;5897;42.640;23.310;2023-08-12T08:59:04;94423.34;;;26.51;38.86
11682;BME280;5897;42.640;23.310;2023-08-12T09:01:31;94424.31;;;26.59;37.95
11682;BME280;5897;42.640;23.310;2023-08-12T09:03:59;94420.34;;;26.49;40.45
11682;BME280;5897;42.640;23.310;2023-08-12T09:06:28;94392.69;;;26.43;40.84
11682;BME280;5897;42.640;23.310;2023-08-12T09:08:56;94415.44;;;26.66;41.91
11682;BME280;5897;42.640;23.310;2023-08-12T09:11:23;94411.47;;;26.85;37.93
11682;BME280;5897;42.640;23.310;2023-08-12T09:13:50;94402.59;;;26.87;36.74
11682;BME280;5897;42.640;23.310;2023-08-12T09:16:17;94398.22;;;27.21;38.21
11682;BME280;5897;42.640;23.310;2023-08-12T09:18:44;94407.09;;;27.14;39.57
11682;BME280;5897;42.640;23.310;2023-08-12T09:21:11;94408.75;;;27.28;40.63
11682;BME280;5897;42.640;23.310;2023-08-12T09:23:40;94401.88;;;27.71;39.50
11682;BME280;5897;42.640;23.310;2023-08-12T09:26:14;94402.78;;;27.79;38.07
11682;BME280;5897;42.640;23.310;2023-08-12T09:28:41;94402.84;;;27.74;38.09
11682;BME280;5897;42.640;23.310;2023-08-12T09:31:22;94395.13;;;27.85;38.25
11682;BME280;5897;42.640;23.310;2023-08-12T09:33:49;94394.84;;;28.20;38.08
11682;BME280;5897;42.640;23.310;2023-08-12T09:36:15;94391.88;;;28.50;36.00
11682;BME280;5897;42.640;23.310;2023-08-12T09:38:44;94386.94;;;28.43;36.84
11682;BME280;5897;42.640;23.310;2023-08-12T09:41:11;94383.47;;;28.68;36.92
11682;BME280;5897;42.640;23.310;2023-08-12T09:43:40;94371.38;;;28.66;35.05
11682;BME280;5897;42.640;23.310;2023-08-12T09:46:10;94369.34;;;28.79;33.05
11682;BME280;5897;42.640;23.310;2023-08-12T09:48:38;94381.84;;;28.73;35.28
11682;BME280;5897;42.640;23.310;2023-08-12T09:51:05;94372.06;;;29.11;33.91
11682;BME280;5897;42.640;23.310;2023-08-12T09:53:32;94383.38;;;29.39;32.69
11682;BME280;5897;42.640;23.310;2023-08-12T09:56:03;94368.47;;;29.49;31.54
11682;BME280;5897;42.640;23.310;2023-08-12T09:58:32;94371.50;;;29.25;32.73
11682;BME280;5897;42.640;23.310;2023-08-12T10:01:01;94367.84;;;29.56;32.26
11682;BME280;5897;42.640;23.310;2023-08-12T10:03:28;94360.28;;;29.77;31.60
11682;BME280;5897;42.640;23.310;2023-08-12T10:05:56;94352.66;;;29.91;31.75
11682;BME280;5897;42.640;23.310;2023-08-12T10:08:24;94358.28;;;29.78;33.96
11682;BME280;5897;42.640;23.310;2023-08-12T10:10:51;94356.59;;;29.95;33.00
11682;BME280;5897;42.640;23.310;2023-08-12T10:13:20;94356.63;;;29.82;32.52
11682;BME280;5897;42.640;23.310;2023-08-12T10:15:49;94358.28;;;29.78;30.24
11682;BME280;5897;42.640;23.310;2023-08-12T10:18:18;94346.72;;;29.74;29.98
11682;BME280;5897;42.640;23.310;2023-08-12T10:20:45;94343.34;;;29.88;31.13
11682;BME280;5897;42.640;23.310;2023-08-12T10:23:15;94347.06;;;29.91;32.55
11682;BME280;5897;42.640;23.310;2023-08-12T10:25:43;94345.75;;;30.25;32.87
11682;BME280;5897;42.640;23.310;2023-08-12T10:28:11;94348.03;;;30.75;31.87
11682;BME280;5897;42.640;23.310;2023-08-12T10:30:39;94338.44;;;30.84;31.79
11682;BME280;5897;42.640;23.310;2023-08-12T10:33:07;94335.16;;;31.21;29.75
11682;BME280;5897;42.640;23.310;2023-08-12T10:35:44;94337.09;;;31.41;29.79
11682;BME280;5897;42.640;23.310;2023-08-12T10:38:13;94337.00;;;31.61;29.12
11682;BME280;5897;42.640;23.310;2023-08-12T10:40:41;94330.78;;;31.48;29.33
11682;BME280;5897;42.640;23.310;2023-08-12T10:43:07;94329.06;;;31.37;28.55
11682;BME280;5897;42.640;23.310;2023-08-12T10:45:43;94327.22;;;31.75;28.43
11682;BME280;5897;42.640;23.310;2023-08-12T10:48:17;94308.94;;;31.74;29.44
11682;BME280;5897;42.640;23.310;2023-08-12T10:50:45;94322.44;;;32.06;28.51
11682;BME280;5897;42.640;23.310;2023-08-12T10:53:23;94321.94;;;32.37;28.24
11682;BME280;5897;42.640;23.310;2023-08-12T10:55:55;94315.38;;;32.50;27.64
11682;BME280;5897;42.640;23.310;2023-08-12T10:58:30;94307.56;;;32.78;26.67
11682;BME280;5897;42.640;23.310;2023-08-12T11:00:58;94311.09;;;32.86;27.42
11682;BME280;5897;42.640;23.310;2023-08-12T11:03:25;94312.97;;;32.69;26.89
11682;BME280;5897;42.640;23.310;2023-08-12T11:05:53;94310.69;;;32.97;26.49
11682;BME280;5897;42.640;23.310;2023-08-12T11:08:26;94301.66;;;33.21;26.31
11682;BME280;5897;42.640;23.310;2023-08-12T11:10:54;94302.44;;;33.14;25.29
11682;BME280;5897;42.640;23.310;2023-08-12T11:13:22;94286.56;;;33.17;23.54
11682;BME280;5897;42.640;23.310;2023-08-12T11:15:50;94293.69;;;33.10;26.13
11682;BME280;5897;42.640;23.310;2023-08-12T11:18:19;94301.16;;;33.08;24.53
11682;BME280;5897;42.640;23.310;2023-08-12T11:20:48;94287.56;;;32.97;25.23
11682;BME280;5897;42.640;23.310;2023-08-12T11:23:15;94286.41;;;33.15;25.51
11682;BME280;5897;42.640;23.310;2023-08-12T11:25:43;94291.38;;;33.24;25.38
11682;BME280;5897;42.640;23.310;2023-08-12T11:28:10;94285.41;;;33.35;25.37
11682;BME280;5897;42.640;23.310;2023-08-12T11:30:40;94278.78;;;33.55;25.93
11682;BME280;5897;42.640;23.310;2023-08-12T11:33:09;94279.88;;;33.59;26.13
11682;BME280;5897;42.640;23.310;2023-08-12T11:35:37;94285.28;;;33.65;25.55
11682;BME280;5897;42.640;23.310;2023-08-12T11:38:05;94287.09;;;33.77;24.35
11682;BME280;5897;42.640;23.310;2023-08-12T11:40:33;94274.19;;;34.06;24.92
11682;BME280;5897;42.640;23.310;2023-08-12T11:43:02;94271.66;;;34.25;25.67
11682;BME280;5897;42.640;23.310;2023-08-12T11:45:29;94268.78;;;34.08;25.16
11682;BME280;5897;42.640;23.310;2023-08-12T11:47:56;94271.66;;;33.07;24.70
11682;BME280;5897;42.640;23.310;2023-08-12T11:50:24;94280.16;;;32.47;25.25
11682;BME280;5897;42.640;23.310;2023-08-12T11:52:53;94271.69;;;31.87;26.46
11682;BME280;5897;42.640;23.310;2023-08-12T11:55:20;94276.81;;;31.53;26.23
11682;BME280;5897;42.640;23.310;2023-08-12T11:57:48;94272.38;;;31.14;27.57
11682;BME280;5897;42.640;23.310;2023-08-12T12:00:15;94279.34;;;31.28;25.09
11682;BME280;5897;42.640;23.310;2023-08-12T12:02:47;94257.91;;;31.74;25.38
11682;BME280;5897;42.640;23.310;2023-08-12T12:05:14;94264.88;;;32.40;24.69
11682;BME280;5897;42.640;23.310;2023-08-12T12:07:41;94270.63;;;32.80;24.47
11682;BME280;5897;42.640;23.310;2023-08-12T12:10:12;94257.31;;;33.10;23.91
11682;BME280;5897;42.640;23.310;2023-08-12T12:12:40;94263.59;;;33.18;23.07
11682;BME280;5897;42.640;23.310;2023-08-12T12:15:08;94260.91;;;33.75;22.56
11682;BME280;5897;42.640;23.310;2023-08-12T12:17:38;94255.09;;;34.12;21.86
11682;BME280;5897;42.640;23.310;2023-08-12T12:20:07;94243.81;;;34.20;20.84
11682;BME280;5897;42.640;23.310;2023-08-12T12:22:36;94252.63;;;34.16;22.06
11682;BME280;5897;42.640;23.310;2023-08-12T12:25:06;94241.75;;;34.20;22.55
11682;BME280;5897;42.640;23.310;2023-08-12T12:27:38;94246.78;;;34.46;22.83
11682;BME280;5897;42.640;23.310;2023-08-12T12:30:07;94251.50;;;33.95;23.20
11682;BME280;5897;42.640;23.310;2023-08-12T12:32:34;94252.38;;;33.26;23.93
11682;BME280;5897;42.640;23.310;2023-08-12T12:35:01;94248.47;;;32.37;24.73
11682;BME280;5897;42.640;23.310;2023-08-12T12:37:28;94247.13;;;31.93;24.71
11682;BME280;5897;42.640;23.310;2023-08-12T12:39:55;94244.41;;;31.42;25.30
11682;BME280;5897;42.640;23.310;2023-08-12T12:42:22;94251.88;;;31.12;25.90
11682;BME280;5897;42.640;23.310;2023-08-12T12:44:50;94242.97;;;30.78;26.01
11682;BME280;5897;42.640;23.310;2023-08-12T12:47:17;94241.09;;;30.73;27.38
11682;BME280;5897;42.640;23.310;2023-08-12T12:49:45;94243.38;;;30.82;27.73
11682;BME280;5897;42.640;23.310;2023-08-12T12:52:11;94241.06;;;31.44;26.47
11682;BME280;5897;42.640;23.310;2023-08-12T12:54:38;94232.22;;;32.05;24.56
11682;BME280;5897;42.640;23.310;2023-08-12T12:57:05;94239.69;;;32.40;26.64
11682;BME280;5897;42.640;23.310;2023-08-12T12:59:32;94218.38;;;32.82;26.20
11682;BME280;5897;42.640;23.310;2023-08-12T13:02:00;94220.16;;;33.02;26.54